sensor_id;sensor_type;location;lat;lon;timestamp;temperature;humidity
11965;DHT22;6042;41.326;19.826;2023-05-23T00:00:44;17.40;99.90
11965;DHT22;6042;41.326;19.826;2023-05-23T00:03:14;17.40;99.90
11965;DHT22;6042;41.326;19.826;2023-05-23T00:05:42;17.30;99.90
11965;DHT22;6042;41.326;19.826;2023-05-23T00:08:15;17.30;99.90
11965;DHT22;6042;41.326;19.826;2023-05-23T00:10:43;17.20;99.90
11965;DHT22;6042;41.326;19.826;2023-05-23T00:13:13;17.30;99.90
11965;DHT22;6042;41.326;19.826;2023-05-23T00:15:42;17.30;99.90
11965;DHT22;6042;41.326;19.826;2023-05-23T00:18:10;17.30;99.90
11965;DHT22;6042;41.326;19.826;2023-05-23T00:20:39;17.30;99.90
11965;DHT22;6042;41.326;19.826;2023-05-23T00:23:08;17.20;99.90
11965;DHT22;6042;41.326;19.826;2023-05-23T00:25:37;17.40;99.90
11965;DHT22;6042;41.326;19.826;2023-05-23T00:28:07;17.50;99.90
11965;DHT22;6042;41.326;19.826;2023-05-23T00:30:37;17.50;99.90
11965;DHT22;6042;41.326;19.826;2023-05-23T00:33:05;17.40;99.90
11965;DHT22;6042;41.326;19.826;2023-05-23T00:35:34;17.20;99.90
11965;DHT22;6042;41.326;19.826;2023-05-23T00:38:03;17.10;99.90
11965;DHT22;6042;41.326;19.826;2023-05-23T00:40:34;17.00;99.90
11965;DHT22;6042;41.326;19.826;2023-05-23T00:43:02;16.90;99.90
11965;DHT22;6042;41.326;19.826;2023-05-23T00:45:30;16.80;99.90
11965;DHT22;6042;41.326;19.826;2023-05-23T00:48:01;16.90;99.90
11965;DHT22;6042;41.326;19.826;2023-05-23T00:50:30;17.00;99.90
11965;DHT22;6042;41.326;19.826;2023-05-23T00:53:00;17.10;99.90
11965;DHT22;6042;41.326;19.826;2023-05-23T00:55:29;17.20;99.90
11965;DHT22;6042;41.326;19.826;2023-05-23T00:57:58;17.20;99.90
11965;DHT22;6042;41.326;19.826;2023-05-23T01:00:27;17.10;99.90
11965;DHT22;6042;41.326;19.826;2023-05-23T01:02:56;17.00;99.90
11965;DHT22;6042;41.326;19.826;2023-05-23T01:05:26;17.00;99.90
11965;DHT22;6042;41.326;19.826;2023-05-23T01:07:54;17.00;99.90
11965;DHT22;6042;41.326;19.826;2023-05-23T01:10:25;16.90;99.90
11965;DHT22;6042;41.326;19.826;2023-05-23T01:13:05;17.00;99.90
11965;DHT22;6042;41.326;19.826;2023-05-23T01:15:42;16.90;99.90
11965;DHT22;6042;41.326;19.826;2023-05-23T01:18:15;16.90;99.90
11965;DHT22;6042;41.326;19.826;2023-05-23T01:20:51;16.90;99.90
11965;DHT22;6042;41.326;19.826;2023-05-23T01:23:45;16.80;99.90
11965;DHT22;6042;41.326;19.826;2023-05-23T01:26:45;16.80;99.90
11965;DHT22;6042;41.326;19.826;2023-05-23T01:29:24;16.80;99.90
11965;DHT22;6042;41.326;19.826;2023-05-23T01:31:56;16.80;99.90
11965;DHT22;6042;41.326;19.826;2023-05-23T01:34:25;16.70;99.90
11965;DHT22;6042;41.326;19.826;2023-05-23T01:36:54;16.70;99.90
11965;DHT22;6042;41.326;19.826;2023-05-23T01:39:23;16.70;99.90
11965;DHT22;6042;41.326;19.826;2023-05-23T01:41:52;16.80;99.90
11965;DHT22;6042;41.326;19.826;2023-05-23T01:44:22;16.80;99.90
11965;DHT22;6042;41.326;19.826;2023-05-23T01:46:51;16.90;99.90
11965;DHT22;6042;41.326;19.826;2023-05-23T01:49:21;16.90;99.90
11965;DHT22;6042;41.326;19.826;2023-05-23T01:51:52;16.80;99.90
11965;DHT22;6042;41.326;19.826;2023-05-23T01:54:21;16.80;99.90
11965;DHT22;6042;41.326;19.826;2023-05-23T01:56:50;16.90;99.90
11965;DHT22;6042;41.326;19.826;2023-05-23T01:59:18;16.90;99.90
11965;DHT22;6042;41.326;19.826;2023-05-23T02:01:49;16.80;99.90
11965;DHT22;6042;41.326;19.826;2023-05-23T02:04:18;16.70;99.90
11965;DHT22;6042;41.326;19.826;2023-05-23T02:06:46;16.80;99.90
11965;DHT22;6042;41.326;19.826;2023-05-23T02:09:15;16.80;99.90
11965;DHT22;6042;41.326;19.826;2023-05-23T02:11:44;16.80;99.90
11965;DHT22;6042;41.326;19.826;2023-05-23T02:14:12;16.80;99.90
11965;DHT22;6042;41.326;19.826;2023-05-23T02:16:41;16.80;99.90
11965;DHT22;6042;41.326;19.826;2023-05-23T02:19:11;16.80;99.90
11965;DHT22;6042;41.326;19.826;2023-05-23T02:21:39;16.90;99.90
11965;DHT22;6042;41.326;19.826;2023-05-23T02:24:08;16.90;99.90
11965;DHT22;6042;41.326;19.826;2023-05-23T02:26:36;16.90;99.90
11965;DHT22;6042;41.326;19.826;2023-05-23T02:29:05;16.90;99.90
11965;DHT22;6042;41.326;19.826;2023-05-23T02:31:33;17.00;99.90
11965;DHT22;6042;41.326;19.826;2023-05-23T02:34:02;17.10;99.90
11965;DHT22;6042;41.326;19.826;2023-05-23T02:36:32;17.10;99.90
11965;DHT22;6042;41.326;19.826;2023-05-23T02:39:00;17.20;99.90
11965;DHT22;6042;41.326;19.826;2023-05-23T02:41:29;17.20;99.90
11965;DHT22;6042;41.326;19.826;2023-05-23T02:43:57;17.10;99.90
11965;DHT22;6042;41.326;19.826;2023-05-23T02:46:26;17.00;99.90
11965;DHT22;6042;41.326;19.826;2023-05-23T02:48:54;16.90;99.90
11965;DHT22;6042;41.326;19.826;2023-05-23T02:51:23;16.80;99.90
11965;DHT22;6042;41.326;19.826;2023-05-23T02:53:53;16.70;99.90
11965;DHT22;6042;41.326;19.826;2023-05-23T02:56:22;16.80;99.90
11965;DHT22;6042;41.326;19.826;2023-05-23T02:58:53;17.00;99.90
11965;DHT22;6042;41.326;19.826;2023-05-23T03:01:21;17.00;99.90
11965;DHT22;6042;41.326;19.826;2023-05-23T03:03:50;17.00;99.90
11965;DHT22;6042;41.326;19.826;2023-05-23T03:06:19;16.90;99.90
11965;DHT22;6042;41.326;19.826;2023-05-23T03:08:48;16.80;99.90
11965;DHT22;6042;41.326;19.826;2023-05-23T03:11:18;16.80;99.90
11965;DHT22;6042;41.326;19.826;2023-05-23T03:13:48;16.80;99.90
11965;DHT22;6042;41.326;19.826;2023-05-23T03:16:17;16.90;99.90
11965;DHT22;6042;41.326;19.826;2023-05-23T03:18:45;16.90;99.90
11965;DHT22;6042;41.326;19.826;2023-05-23T03:21:14;16.90;99.90
11965;DHT22;6042;41.326;19.826;2023-05-23T03:23:43;16.80;99.90
11965;DHT22;6042;41.326;19.826;2023-05-23T03:26:11;16.80;99.90
11965;DHT22;6042;41.326;19.826;2023-05-23T03:28:41;16.80;99.90
11965;DHT22;6042;41.326;19.826;2023-05-23T03:31:10;16.80;99.90
11965;DHT22;6042;41.326;19.826;2023-05-23T03:33:38;16.80;99.90
11965;DHT22;6042;41.326;19.826;2023-05-23T03:36:06;16.80;99.90
11965;DHT22;6042;41.326;19.826;2023-05-23T03:38:35;16.80;99.90
11965;DHT22;6042;41.326;19.826;2023-05-23T03:41:03;16.80;99.90
11965;DHT22;6042;41.326;19.826;2023-05-23T03:43:32;16.90;99.90
11965;DHT22;6042;41.326;19.826;2023-05-23T03:46:02;16.80;99.90
11965;DHT22;6042;41.326;19.826;2023-05-23T03:48:31;16.80;99.90
11965;DHT22;6042;41.326;19.826;2023-05-23T03:51:00;16.80;99.90
11965;DHT22;6042;41.326;19.826;2023-05-23T03:53:30;16.70;99.90
11965;DHT22;6042;41.326;19.826;2023-05-23T03:56:01;16.70;99.90
11965;DHT22;6042;41.326;19.826;2023-05-23T03:58:30;16.70;99.90
11965;DHT22;6042;41.326;19.826;2023-05-23T04:01:04;16.70;99.90
11965;DHT22;6042;41.326;19.826;2023-05-23T04:03:33;16.70;99.90
11965;DHT22;6042;41.326;19.826;2023-05-23T04:06:03;16.60;99.90
11965;DHT22;6042;41.326;19.826;2023-05-23T04:08:32;16.60;99.90
11965;DHT22;6042;41.326;19.826;2023-05-23T04:11:01;16.70;99.90
11965;DHT22;6042;41.326;19.826;2023-05-23T04:13:34;16.80;99.90
11965;DHT22;6042;41.326;19.826;2023-05-23T04:16:06;16.60;99.90
11965;DHT22;6042;41.326;19.826;2023-05-23T04:18:34;16.60;99.90
11965;DHT22;6042;41.326;19.826;2023-05-23T04:21:07;16.70;99.90
11965;DHT22;6042;41.326;19.826;2023-05-23T04:23:41;16.80;99.90
11965;DHT22;6042;41.326;19.826;2023-05-23T04:26:11;16.80;99.90
11965;DHT22;6042;41.326;19.826;2023-05-23T04:28:46;16.90;99.90
11965;DHT22;6042;41.326;19.826;2023-05-23T04:31:17;16.80;99.90
11965;DHT22;6042;41.326;19.826;2023-05-23T04:33:46;16.80;99.90
11965;DHT22;6042;41.326;19.826;2023-05-23T04:36:16;16.80;99.90
11965;DHT22;6042;41.326;19.826;2023-05-23T04:38:50;16.90;99.90
11965;DHT22;6042;41.326;19.826;2023-05-23T04:41:19;16.80;99.90
11965;DHT22;6042;41.326;19.826;2023-05-23T04:44:16;16.70;99.90
11965;DHT22;6042;41.326;19.826;2023-05-23T04:47:00;16.80;99.90
11965;DHT22;6042;41.326;19.826;2023-05-23T04:49:47;16.80;99.90
11965;DHT22;6042;41.326;19.826;2023-05-23T04:52:15;16.90;99.90
11965;DHT22;6042;41.326;19.826;2023-05-23T04:54:45;17.10;99.90
11965;DHT22;6042;41.326;19.826;2023-05-23T04:57:15;17.00;99.90
11965;DHT22;6042;41.326;19.826;2023-05-23T04:59:43;17.10;99.90
11965;DHT22;6042;41.326;19.826;2023-05-23T05:02:14;17.20;99.90
11965;DHT22;6042;41.326;19.826;2023-05-23T05:04:43;17.20;99.90
11965;DHT22;6042;41.326;19.826;2023-05-23T05:07:11;17.30;99.90
11965;DHT22;6042;41.326;19.826;2023-05-23T05:09:41;17.40;99.90
11965;DHT22;6042;41.326;19.826;2023-05-23T05:12:10;17.40;99.90
11965;DHT22;6042;41.326;19.826;2023-05-23T05:14:39;17.40;99.90
11965;DHT22;6042;41.326;19.826;2023-05-23T05:17:08;17.40;99.90
11965;DHT22;6042;41.326;19.826;2023-05-23T05:19:48;17.60;99.90
11965;DHT22;6042;41.326;19.826;2023-05-23T05:22:17;17.70;99.90
11965;DHT22;6042;41.326;19.826;2023-05-23T05:24:46;17.60;99.90
11965;DHT22;6042;41.326;19.826;2023-05-23T05:27:14;17.60;99.90
11965;DHT22;6042;41.326;19.826;2023-05-23T05:29:43;17.60;99.90
11965;DHT22;6042;41.326;19.826;2023-05-23T05:32:12;17.70;99.90
11965;DHT22;6042;41.326;19.826;2023-05-23T05:34:41;17.70;99.90
11965;DHT22;6042;41.326;19.826;2023-05-23T05:37:14;17.60;99.90
11965;DHT22;6042;41.326;19.826;2023-05-23T05:39:43;17.70;99.90
11965;DHT22;6042;41.326;19.826;2023-05-23T05:42:12;17.90;99.90
11965;DHT22;6042;41.326;19.826;2023-05-23T05:44:41;18.00;99.90
11965;DHT22;6042;41.326;19.826;2023-05-23T05:47:09;18.00;99.90
11965;DHT22;6042;41.326;19.826;2023-05-23T05:49:39;18.00;99.90
11965;DHT22;6042;41.326;19.826;2023-05-23T05:52:09;18.10;99.90
11965;DHT22;6042;41.326;19.826;2023-05-23T05:54:40;18.00;99.90
11965;DHT22;6042;41.326;19.826;2023-05-23T05:57:09;18.20;99.90
11965;DHT22;6042;41.326;19.826;2023-05-23T05:59:37;18.40;99.90
11965;DHT22;6042;41.326;19.826;2023-05-23T06:02:06;18.70;99.90
11965;DHT22;6042;41.326;19.826;2023-05-23T06:04:34;18.80;99.90
11965;DHT22;6042;41.326;19.826;2023-05-23T06:07:03;19.00;99.90
11965;DHT22;6042;41.326;19.826;2023-05-23T06:09:32;19.20;99.90
11965;DHT22;6042;41.326;19.826;2023-05-23T06:12:02;19.20;99.90
11965;DHT22;6042;41.326;19.826;2023-05-23T06:14:31;19.20;99.90
11965;DHT22;6042;41.326;19.826;2023-05-23T06:17:00;19.30;99.90
11965;DHT22;6042;41.326;19.826;2023-05-23T06:19:28;19.30;99.90
11965;DHT22;6042;41.326;19.826;2023-05-23T06:21:57;19.40;99.90
11965;DHT22;6042;41.326;19.826;2023-05-23T06:24:25;19.40;99.90
11965;DHT22;6042;41.326;19.826;2023-05-23T06:26:54;19.70;99.90
11965;DHT22;6042;41.326;19.826;2023-05-23T06:29:25;19.90;99.90
11965;DHT22;6042;41.326;19.826;2023-05-23T06:31:54;20.20;99.90
11965;DHT22;6042;41.326;19.826;2023-05-23T06:34:24;20.40;99.90
11965;DHT22;6042;41.326;19.826;2023-05-23T06:36:52;20.40;99.90
11965;DHT22;6042;41.326;19.826;2023-05-23T06:39:21;20.50;99.90
11965;DHT22;6042;41.326;19.826;2023-05-23T06:41:52;20.60;99.90
11965;DHT22;6042;41.326;19.826;2023-05-23T06:44:21;20.70;99.90
11965;DHT22;6042;41.326;19.826;2023-05-23T06:46:54;20.70;99.90
11965;DHT22;6042;41.326;19.826;2023-05-23T06:49:25;21.00;99.90
11965;DHT22;6042;41.326;19.826;2023-05-23T06:51:54;21.20;99.90
11965;DHT22;6042;41.326;19.826;2023-05-23T06:54:23;21.20;99.90
11965;DHT22;6042;41.326;19.826;2023-05-23T06:56:52;21.20;99.90
11965;DHT22;6042;41.326;19.826;2023-05-23T06:59:21;21.40;99.90
11965;DHT22;6042;41.326;19.826;2023-05-23T07:01:50;21.50;99.90
11965;DHT22;6042;41.326;19.826;2023-05-23T07:04:20;21.60;99.90
11965;DHT22;6042;41.326;19.826;2023-05-23T07:06:49;21.70;99.90
11965;DHT22;6042;41.326;19.826;2023-05-23T07:09:19;21.90;99.90
11965;DHT22;6042;41.326;19.826;2023-05-23T07:11:47;22.20;99.90
11965;DHT22;6042;41.326;19.826;2023-05-23T07:14:16;22.30;99.90
11965;DHT22;6042;41.326;19.826;2023-05-23T07:16:46;22.50;99.40
11965;DHT22;6042;41.326;19.826;2023-05-23T07:19:16;22.50;99.90
11965;DHT22;6042;41.326;19.826;2023-05-23T07:21:49;22.50;99.90
11965;DHT22;6042;41.326;19.826;2023-05-23T07:24:18;22.50;97.80
11965;DHT22;6042;41.326;19.826;2023-05-23T07:26:49;22.70;97.70
11965;DHT22;6042;41.326;19.826;2023-05-23T07:29:18;22.70;97.90
11965;DHT22;6042;41.326;19.826;2023-05-23T07:31:49;22.70;98.00
11965;DHT22;6042;41.326;19.826;2023-05-23T07:34:21;22.70;98.00
11965;DHT22;6042;41.326;19.826;2023-05-23T07:36:55;22.90;97.30
11965;DHT22;6042;41.326;19.826;2023-05-23T07:39:30;23.10;97.30
11965;DHT22;6042;41.326;19.826;2023-05-23T07:42:00;23.10;97.50
11965;DHT22;6042;41.326;19.826;2023-05-23T07:44:29;23.00;97.00
11965;DHT22;6042;41.326;19.826;2023-05-23T07:46:57;23.00;96.90
11965;DHT22;6042;41.326;19.826;2023-05-23T07:49:26;23.00;97.10
11965;DHT22;6042;41.326;19.826;2023-05-23T07:51:57;23.10;96.70
11965;DHT22;6042;41.326;19.826;2023-05-23T07:54:25;23.30;96.50
11965;DHT22;6042;41.326;19.826;2023-05-23T07:56:58;23.50;95.00
11965;DHT22;6042;41.326;19.826;2023-05-23T07:59:27;23.70;94.80
11965;DHT22;6042;41.326;19.826;2023-05-23T08:01:56;23.70;94.80
11965;DHT22;6042;41.326;19.826;2023-05-23T08:04:26;23.80;93.90
11965;DHT22;6042;41.326;19.826;2023-05-23T08:06:56;24.00;94.30
11965;DHT22;6042;41.326;19.826;2023-05-23T08:09:42;24.10;93.10
11965;DHT22;6042;41.326;19.826;2023-05-23T08:12:14;24.20;93.90
11965;DHT22;6042;41.326;19.826;2023-05-23T08:14:44;24.20;93.50
11965;DHT22;6042;41.326;19.826;2023-05-23T08:17:41;24.30;91.50
11965;DHT22;6042;41.326;19.826;2023-05-23T08:20:11;24.30;90.10
11965;DHT22;6042;41.326;19.826;2023-05-23T08:22:41;24.30;89.60
11965;DHT22;6042;41.326;19.826;2023-05-23T08:25:10;24.30;90.40
11965;DHT22;6042;41.326;19.826;2023-05-23T08:27:40;24.30;90.50
11965;DHT22;6042;41.326;19.826;2023-05-23T08:30:23;24.30;90.80
11965;DHT22;6042;41.326;19.826;2023-05-23T08:32:54;24.30;90.70
11965;DHT22;6042;41.326;19.826;2023-05-23T08:35:24;24.30;91.80
11965;DHT22;6042;41.326;19.826;2023-05-23T08:37:54;24.00;91.30
11965;DHT22;6042;41.326;19.826;2023-05-23T08:40:26;24.10;92.40
11965;DHT22;6042;41.326;19.826;2023-05-23T08:43:03;24.30;90.40
11965;DHT22;6042;41.326;19.826;2023-05-23T08:45:32;24.30;89.60
11965;DHT22;6042;41.326;19.826;2023-05-23T08:48:03;24.20;88.70
11965;DHT22;6042;41.326;19.826;2023-05-23T08:50:40;24.20;87.60
11965;DHT22;6042;41.326;19.826;2023-05-23T08:53:14;24.30;90.40
11965;DHT22;6042;41.326;19.826;2023-05-23T08:55:51;24.30;89.10
11965;DHT22;6042;41.326;19.826;2023-05-23T08:58:26;24.40;86.40
11965;DHT22;6042;41.326;19.826;2023-05-23T09:00:57;24.60;85.50
11965;DHT22;6042;41.326;19.826;2023-05-23T09:03:27;24.60;85.60
11965;DHT22;6042;41.326;19.826;2023-05-23T09:06:14;24.70;85.90
11965;DHT22;6042;41.326;19.826;2023-05-23T09:08:46;24.70;85.90
11965;DHT22;6042;41.326;19.826;2023-05-23T09:11:17;24.90;85.20
11965;DHT22;6042;41.326;19.826;2023-05-23T09:13:50;25.00;85.40
11965;DHT22;6042;41.326;19.826;2023-05-23T09:16:21;25.20;86.00
11965;DHT22;6042;41.326;19.826;2023-05-23T09:18:55;25.20;84.50
11965;DHT22;6042;41.326;19.826;2023-05-23T09:21:24;25.10;85.00
11965;DHT22;6042;41.326;19.826;2023-05-23T09:30:59;24.80;85.30
11965;DHT22;6042;41.326;19.826;2023-05-23T09:33:38;24.80;85.60
11965;DHT22;6042;41.326;19.826;2023-05-23T09:36:07;24.80;86.20
11965;DHT22;6042;41.326;19.826;2023-05-23T09:38:37;24.90;86.90
11965;DHT22;6042;41.326;19.826;2023-05-23T09:41:06;25.10;87.00
11965;DHT22;6042;41.326;19.826;2023-05-23T09:43:37;25.20;88.70
11965;DHT22;6042;41.326;19.826;2023-05-23T09:46:10;25.10;89.50
11965;DHT22;6042;41.326;19.826;2023-05-23T09:48:38;25.20;89.60
11965;DHT22;6042;41.326;19.826;2023-05-23T09:51:08;25.30;90.10
11965;DHT22;6042;41.326;19.826;2023-05-23T09:53:37;25.30;88.40
11965;DHT22;6042;41.326;19.826;2023-05-23T09:56:06;25.30;88.40
11965;DHT22;6042;41.326;19.826;2023-05-23T09:58:38;25.30;88.70
11965;DHT22;6042;41.326;19.826;2023-05-23T10:01:10;25.30;89.70
11965;DHT22;6042;41.326;19.826;2023-05-23T10:03:44;25.30;89.60
11965;DHT22;6042;41.326;19.826;2023-05-23T10:06:18;25.40;90.00
11965;DHT22;6042;41.326;19.826;2023-05-23T10:08:54;25.50;90.40
11965;DHT22;6042;41.326;19.826;2023-05-23T10:12:10;25.60;89.80
11965;DHT22;6042;41.326;19.826;2023-05-23T10:14:49;25.70;90.50
11965;DHT22;6042;41.326;19.826;2023-05-23T10:17:25;25.70;91.30
11965;DHT22;6042;41.326;19.826;2023-05-23T10:19:59;25.60;91.30
11965;DHT22;6042;41.326;19.826;2023-05-23T10:22:29;25.60;91.20
11965;DHT22;6042;41.326;19.826;2023-05-23T10:25:01;25.50;91.20
11965;DHT22;6042;41.326;19.826;2023-05-23T10:27:30;25.60;91.30
11965;DHT22;6042;41.326;19.826;2023-05-23T10:29:59;25.70;91.60
11965;DHT22;6042;41.326;19.826;2023-05-23T10:32:30;25.60;91.60
11965;DHT22;6042;41.326;19.826;2023-05-23T10:35:06;25.60;91.40
11965;DHT22;6042;41.326;19.826;2023-05-23T10:37:41;25.70;91.80
11965;DHT22;6042;41.326;19.826;2023-05-23T10:40:19;25.90;92.00
11965;DHT22;6042;41.326;19.826;2023-05-23T10:42:53;26.00;92.20
11965;DHT22;6042;41.326;19.826;2023-05-23T10:45:23;26.20;91.30
11965;DHT22;6042;41.326;19.826;2023-05-23T10:47:53;26.10;91.20
11965;DHT22;6042;41.326;19.826;2023-05-23T10:50:32;26.10;91.20
11965;DHT22;6042;41.326;19.826;2023-05-23T10:53:04;26.30;92.70
11965;DHT22;6042;41.326;19.826;2023-05-23T10:55:34;26.50;92.00
11965;DHT22;6042;41.326;19.826;2023-05-23T10:58:11;26.70;91.80
11965;DHT22;6042;41.326;19.826;2023-05-23T11:00:53;26.40;91.90
11965;DHT22;6042;41.326;19.826;2023-05-23T11:03:49;26.30;92.30
11965;DHT22;6042;41.326;19.826;2023-05-23T11:06:29;26.60;91.60
11965;DHT22;6042;41.326;19.826;2023-05-23T11:09:03;26.80;91.90
11965;DHT22;6042;41.326;19.826;2023-05-23T11:11:54;27.30;90.70
11965;DHT22;6042;41.326;19.826;2023-05-23T11:17:30;27.00;91.50
11965;DHT22;6042;41.326;19.826;2023-05-23T11:20:02;26.60;90.70
11965;DHT22;6042;41.326;19.826;2023-05-23T11:22:34;26.60;91.10
11965;DHT22;6042;41.326;19.826;2023-05-23T11:25:06;26.40;90.70
11965;DHT22;6042;41.326;19.826;2023-05-23T11:27:39;26.70;90.50
11965;DHT22;6042;41.326;19.826;2023-05-23T11:30:10;27.20;90.40
11965;DHT22;6042;41.326;19.826;2023-05-23T11:32:41;27.20;91.00
11965;DHT22;6042;41.326;19.826;2023-05-23T11:35:11;27.20;90.70
11965;DHT22;6042;41.326;19.826;2023-05-23T11:37:40;27.40;90.20
11965;DHT22;6042;41.326;19.826;2023-05-23T11:40:26;27.30;90.20
11965;DHT22;6042;41.326;19.826;2023-05-23T11:42:55;27.20;90.30
11965;DHT22;6042;41.326;19.826;2023-05-23T11:45:24;27.10;90.60
11965;DHT22;6042;41.326;19.826;2023-05-23T11:47:53;26.90;90.30
11965;DHT22;6042;41.326;19.826;2023-05-23T11:50:23;27.20;90.80
11965;DHT22;6042;41.326;19.826;2023-05-23T11:52:53;27.30;90.00
11965;DHT22;6042;41.326;19.826;2023-05-23T11:55:23;27.30;89.20
11965;DHT22;6042;41.326;19.826;2023-05-23T11:57:54;27.30;88.50
11965;DHT22;6042;41.326;19.826;2023-05-23T12:00:23;27.20;88.50
11965;DHT22;6042;41.326;19.826;2023-05-23T12:02:51;27.10;89.20
11965;DHT22;6042;41.326;19.826;2023-05-23T12:05:19;27.20;88.40
11965;DHT22;6042;41.326;19.826;2023-05-23T12:07:49;27.00;89.00
11965;DHT22;6042;41.326;19.826;2023-05-23T12:10:18;27.20;88.50
11965;DHT22;6042;41.326;19.826;2023-05-23T12:12:49;27.30;87.50
11965;DHT22;6042;41.326;19.826;2023-05-23T12:15:18;27.00;86.80
11965;DHT22;6042;41.326;19.826;2023-05-23T12:17:53;26.90;88.20
11965;DHT22;6042;41.326;19.826;2023-05-23T12:20:21;27.00;87.60
11965;DHT22;6042;41.326;19.826;2023-05-23T12:22:56;27.10;88.30
11965;DHT22;6042;41.326;19.826;2023-05-23T12:25:24;27.20;90.10
11965;DHT22;6042;41.326;19.826;2023-05-23T12:27:53;27.00;90.00
11965;DHT22;6042;41.326;19.826;2023-05-23T12:30:22;26.80;90.50
11965;DHT22;6042;41.326;19.826;2023-05-23T12:32:51;26.90;90.20
11965;DHT22;6042;41.326;19.826;2023-05-23T12:35:19;26.90;90.20
11965;DHT22;6042;41.326;19.826;2023-05-23T12:37:48;27.20;89.80
11965;DHT22;6042;41.326;19.826;2023-05-23T12:40:18;27.60;89.30
11965;DHT22;6042;41.326;19.826;2023-05-23T12:42:50;27.60;90.00
11965;DHT22;6042;41.326;19.826;2023-05-23T12:45:21;27.60;89.00
11965;DHT22;6042;41.326;19.826;2023-05-23T12:47:49;27.50;90.10
11965;DHT22;6042;41.326;19.826;2023-05-23T12:50:20;27.70;90.20
11965;DHT22;6042;41.326;19.826;2023-05-23T12:52:48;28.20;89.30
11965;DHT22;6042;41.326;19.826;2023-05-23T12:55:18;28.80;87.60
11965;DHT22;6042;41.326;19.826;2023-05-23T12:57:47;29.50;85.20
11965;DHT22;6042;41.326;19.826;2023-05-23T13:00:16;30.20;82.30
11965;DHT22;6042;41.326;19.826;2023-05-23T13:02:45;31.00;81.10
11965;DHT22;6042;41.326;19.826;2023-05-23T13:05:14;31.00;80.70
11965;DHT22;6042;41.326;19.826;2023-05-23T13:07:42;31.00;79.40
11965;DHT22;6042;41.326;19.826;2023-05-23T13:10:11;30.50;80.30
11965;DHT22;6042;41.326;19.826;2023-05-23T13:12:41;30.80;80.50
11965;DHT22;6042;41.326;19.826;2023-05-23T13:15:10;30.50;79.70
11965;DHT22;6042;41.326;19.826;2023-05-23T13:17:39;30.70;79.40
11965;DHT22;6042;41.326;19.826;2023-05-23T13:20:10;31.40;78.20
11965;DHT22;6042;41.326;19.826;2023-05-23T13:22:40;31.60;76.80
11965;DHT22;6042;41.326;19.826;2023-05-23T13:25:09;30.70;76.80
11965;DHT22;6042;41.326;19.826;2023-05-23T13:27:37;29.70;77.90
11965;DHT22;6042;41.326;19.826;2023-05-23T13:30:08;28.50;79.80
11965;DHT22;6042;41.326;19.826;2023-05-23T13:32:37;27.60;81.80
11965;DHT22;6042;41.326;19.826;2023-05-23T13:35:06;27.00;83.10
11965;DHT22;6042;41.326;19.826;2023-05-23T13:37:34;26.60;83.60
11965;DHT22;6042;41.326;19.826;2023-05-23T13:40:03;26.30;84.60
11965;DHT22;6042;41.326;19.826;2023-05-23T13:42:34;26.00;85.00
11965;DHT22;6042;41.326;19.826;2023-05-23T13:45:04;26.00;86.00
11965;DHT22;6042;41.326;19.826;2023-05-23T13:47:34;26.60;84.80
11965;DHT22;6042;41.326;19.826;2023-05-23T13:50:04;27.90;81.50
11965;DHT22;6042;41.326;19.826;2023-05-23T13:52:33;29.70;77.20
11965;DHT22;6042;41.326;19.826;2023-05-23T13:55:02;31.10;73.30
11965;DHT22;6042;41.326;19.826;2023-05-23T13:57:30;31.20;72.60
11965;DHT22;6042;41.326;19.826;2023-05-23T13:59:59;30.90;72.60
11965;DHT22;6042;41.326;19.826;2023-05-23T14:02:30;30.30;74.00
11965;DHT22;6042;41.326;19.826;2023-05-23T14:05:00;30.50;74.00
11965;DHT22;6042;41.326;19.826;2023-05-23T14:07:29;31.60;70.20
11965;DHT22;6042;41.326;19.826;2023-05-23T14:09:57;31.80;67.60
11965;DHT22;6042;41.326;19.826;2023-05-23T14:12:25;31.10;69.20
11965;DHT22;6042;41.326;19.826;2023-05-23T14:14:54;29.60;72.00
11965;DHT22;6042;41.326;19.826;2023-05-23T14:17:22;28.20;76.00
11965;DHT22;6042;41.326;19.826;2023-05-23T14:19:53;27.90;77.10
11965;DHT22;6042;41.326;19.826;2023-05-23T14:22:23;27.20;77.80
11965;DHT22;6042;41.326;19.826;2023-05-23T14:24:53;27.10;79.10
11965;DHT22;6042;41.326;19.826;2023-05-23T14:27:21;26.70;80.20
11965;DHT22;6042;41.326;19.826;2023-05-23T14:29:50;26.20;80.70
11965;DHT22;6042;41.326;19.826;2023-05-23T14:32:18;26.00;82.60
11965;DHT22;6042;41.326;19.826;2023-05-23T14:34:47;25.90;87.40
11965;DHT22;6042;41.326;19.826;2023-05-23T14:37:15;25.50;90.50
11965;DHT22;6042;41.326;19.826;2023-05-23T14:39:45;25.30;91.40
11965;DHT22;6042;41.326;19.826;2023-05-23T14:42:14;25.20;92.00
11965;DHT22;6042;41.326;19.826;2023-05-23T14:44:42;25.10;92.30
11965;DHT22;6042;41.326;19.826;2023-05-23T14:47:10;25.00;92.30
11965;DHT22;6042;41.326;19.826;2023-05-23T14:49:39;24.80;92.80
11965;DHT22;6042;41.326;19.826;2023-05-23T14:52:07;24.60;93.40
11965;DHT22;6042;41.326;19.826;2023-05-23T14:54:36;24.60;93.50
11965;DHT22;6042;41.326;19.826;2023-05-23T14:57:08;24.60;93.20
11965;DHT22;6042;41.326;19.826;2023-05-23T14:59:36;24.50;93.60
11965;DHT22;6042;41.326;19.826;2023-05-23T15:02:05;24.50;93.40
11965;DHT22;6042;41.326;19.826;2023-05-23T15:04:34;24.50;93.40
11965;DHT22;6042;41.326;19.826;2023-05-23T15:07:03;24.30;93.80
11965;DHT22;6042;41.326;19.826;2023-05-23T15:09:31;24.30;94.00
11965;DHT22;6042;41.326;19.826;2023-05-23T15:12:00;24.40;94.10
11965;DHT22;6042;41.326;19.826;2023-05-23T15:14:32;24.40;94.10
11965;DHT22;6042;41.326;19.826;2023-05-23T15:17:01;24.40;94.20
11965;DHT22;6042;41.326;19.826;2023-05-23T15:19:34;24.50;94.40
11965;DHT22;6042;41.326;19.826;2023-05-23T15:22:04;24.60;94.00
11965;DHT22;6042;41.326;19.826;2023-05-23T15:24:33;24.50;93.80
11965;DHT22;6042;41.326;19.826;2023-05-23T15:27:05;24.40;93.80
11965;DHT22;6042;41.326;19.826;2023-05-23T15:29:48;24.40;93.60
11965;DHT22;6042;41.326;19.826;2023-05-23T15:32:16;24.40;93.70
11965;DHT22;6042;41.326;19.826;2023-05-23T15:34:44;24.30;93.80
11965;DHT22;6042;41.326;19.826;2023-05-23T15:37:13;24.30;93.50
11965;DHT22;6042;41.326;19.826;2023-05-23T15:39:42;24.30;94.10
11965;DHT22;6042;41.326;19.826;2023-05-23T15:42:10;24.10;94.60
11965;DHT22;6042;41.326;19.826;2023-05-23T15:44:39;24.00;94.90
11965;DHT22;6042;41.326;19.826;2023-05-23T15:47:08;23.80;95.70
11965;DHT22;6042;41.326;19.826;2023-05-23T15:49:39;23.80;95.50
11965;DHT22;6042;41.326;19.826;2023-05-23T15:52:07;23.70;95.30
11965;DHT22;6042;41.326;19.826;2023-05-23T15:54:35;23.90;95.20
11965;DHT22;6042;41.326;19.826;2023-05-23T15:57:04;23.80;95.80
11965;DHT22;6042;41.326;19.826;2023-05-23T15:59:34;24.10;95.60
11965;DHT22;6042;41.326;19.826;2023-05-23T16:02:03;24.70;95.00